sensor_id;sensor_type;location;lat;lon;timestamp;pressure;altitude;pressure_sealevel;temperature;humidity
9774;BME280;4926;42.670;23.316;2023-12-20T00:02:26;94922.25;;;2.96;100.00
9774;BME280;4926;42.670;23.316;2023-12-20T00:04:57;94926.34;;;3.04;100.00
9774;BME280;4926;42.670;23.316;2023-12-20T00:07:24;94930.69;;;2.98;100.00
9774;BME280;4926;42.670;23.316;2023-12-20T00:09:51;94919.38;;;2.98;100.00
9774;BME280;4926;42.670;23.316;2023-12-20T00:12:20;94914.94;;;2.87;100.00
9774;BME280;4926;42.670;23.316;2023-12-20T00:14:47;94911.03;;;2.89;100.00
9774;BME280;4926;42.670;23.316;2023-12-20T00:17:14;94917.44;;;2.93;100.00
9774;BME280;4926;42.670;23.316;2023-12-20T00:19:41;94915.06;;;2.92;100.00
9774;BME280;4926;42.670;23.316;2023-12-20T00:22:09;94910.03;;;2.90;100.00
9774;BME280;4926;42.670;23.316;2023-12-20T00:24:37;94907.84;;;2.87;100.00
9774;BME280;4926;42.670;23.316;2023-12-20T00:27:06;94904.44;;;2.75;100.00
9774;BME280;4926;42.670;23.316;2023-12-20T00:29:33;94897.25;;;2.71;100.00
9774;BME280;4926;42.670;23.316;2023-12-20T00:32:00;94892.34;;;2.51;100.00
9774;BME280;4926;42.670;23.316;2023-12-20T00:34:27;94893.69;;;2.42;100.00
9774;BME280;4926;42.670;23.316;2023-12-20T00:36:54;94889.13;;;2.26;100.00
9774;BME280;4926;42.670;23.316;2023-12-20T00:39:22;94885.13;;;2.23;100.00
9774;BME280;4926;42.670;23.316;2023-12-20T00:41:49;94883.63;;;2.16;100.00
9774;BME280;4926;42.670;23.316;2023-12-20T00:44:21;94879.84;;;2.00;100.00
9774;BME280;4926;42.670;23.316;2023-12-20T00:46:48;94873.47;;;2.19;100.00
9774;BME280;4926;42.670;23.316;2023-12-20T00:49:15;94875.53;;;2.17;100.00
9774;BME280;4926;42.670;23.316;2023-12-20T00:51:44;94875.41;;;2.01;100.00
9774;BME280;4926;42.670;23.316;2023-12-20T00:54:12;94876.19;;;2.01;100.00
9774;BME280;4926;42.670;23.316;2023-12-20T00:56:40;94868.00;;;2.09;100.00
9774;BME280;4926;42.670;23.316;2023-12-20T00:59:12;94861.47;;;2.12;100.00
9774;BME280;4926;42.670;23.316;2023-12-20T01:01:40;94867.06;;;2.04;100.00
9774;BME280;4926;42.670;23.316;2023-12-20T01:04:12;94860.69;;;2.11;100.00
9774;BME280;4926;42.670;23.316;2023-12-20T01:06:39;94859.66;;;2.01;100.00
9774;BME280;4926;42.670;23.316;2023-12-20T01:09:06;94861.47;;;2.12;100.00
9774;BME280;4926;42.670;23.316;2023-12-20T01:11:33;94842.97;;;2.07;100.00
9774;BME280;4926;42.670;23.316;2023-12-20T01:14:04;94859.41;;;2.02;100.00
9774;BME280;4926;42.670;23.316;2023-12-20T01:16:31;94846.94;;;1.75;100.00
9774;BME280;4926;42.670;23.316;2023-12-20T01:18:58;94855.00;;;1.62;100.00
9774;BME280;4926;42.670;23.316;2023-12-20T01:21:26;94840.94;;;1.56;100.00
9774;BME280;4926;42.670;23.316;2023-12-20T01:23:53;94844.97;;;1.70;100.00
9774;BME280;4926;42.670;23.316;2023-12-20T01:26:20;94837.75;;;1.54;100.00
9774;BME280;4926;42.670;23.316;2023-12-20T01:28:47;94833.75;;;1.52;100.00
9774;BME280;4926;42.670;23.316;2023-12-20T01:31:15;94828.06;;;1.55;100.00
9774;BME280;4926;42.670;23.316;2023-12-20T01:33:45;94818.38;;;1.67;100.00
9774;BME280;4926;42.670;23.316;2023-12-20T01:36:18;94822.34;;;1.58;100.00
9774;BME280;4926;42.670;23.316;2023-12-20T01:38:49;94821.47;;;1.64;100.00
9774;BME280;4926;42.670;23.316;2023-12-20T01:41:19;94815.31;;;1.70;100.00
9774;BME280;4926;42.670;23.316;2023-12-20T01:43:45;94809.41;;;1.86;100.00
9774;BME280;4926;42.670;23.316;2023-12-20T01:46:12;94807.03;;;1.96;100.00
9774;BME280;4926;42.670;23.316;2023-12-20T01:48:41;94805.09;;;2.03;100.00
9774;BME280;4926;42.670;23.316;2023-12-20T01:51:27;94796.53;;;1.96;100.00
9774;BME280;4926;42.670;23.316;2023-12-20T01:53:55;94796.19;;;2.04;100.00
9774;BME280;4926;42.670;23.316;2023-12-20T01:56:25;94791.41;;;2.01;100.00
9774;BME280;4926;42.670;23.316;2023-12-20T01:58:53;94791.28;;;1.96;100.00
9774;BME280;4926;42.670;23.316;2023-12-20T02:01:21;94791.47;;;1.94;100.00
9774;BME280;4926;42.670;23.316;2023-12-20T02:03:49;94786.13;;;1.89;100.00
9774;BME280;4926;42.670;23.316;2023-12-20T02:06:18;94788.53;;;2.02;100.00
9774;BME280;4926;42.670;23.316;2023-12-20T02:08:45;94774.72;;;2.07;100.00
9774;BME280;4926;42.670;23.316;2023-12-20T02:11:13;94777.78;;;2.15;100.00
9774;BME280;4926;42.670;23.316;2023-12-20T02:13:40;94772.31;;;2.17;100.00
9774;BME280;4926;42.670;23.316;2023-12-20T02:16:07;94774.84;;;2.23;100.00
9774;BME280;4926;42.670;23.316;2023-12-20T02:18:33;94770.81;;;2.21;100.00
9774;BME280;4926;42.670;23.316;2023-12-20T02:21:04;94765.91;;;2.24;100.00
9774;BME280;4926;42.670;23.316;2023-12-20T02:23:32;94767.97;;;2.34;100.00
9774;BME280;4926;42.670;23.316;2023-12-20T02:26:00;94765.34;;;2.34;100.00
9774;BME280;4926;42.670;23.316;2023-12-20T02:28:28;94766.34;;;2.33;100.00
9774;BME280;4926;42.670;23.316;2023-12-20T02:30:56;94754.84;;;2.34;100.00
9774;BME280;4926;42.670;23.316;2023-12-20T02:33:23;94753.69;;;2.30;100.00
9774;BME280;4926;42.670;23.316;2023-12-20T02:35:50;94760.09;;;2.34;100.00
9774;BME280;4926;42.670;23.316;2023-12-20T02:38:19;94753.22;;;2.33;100.00
9774;BME280;4926;42.670;23.316;2023-12-20T02:40:47;94739.09;;;2.34;100.00
9774;BME280;4926;42.670;23.316;2023-12-20T02:43:14;94742.63;;;2.40;100.00
9774;BME280;4926;42.670;23.316;2023-12-20T02:45:41;94752.66;;;2.43;100.00
9774;BME280;4926;42.670;23.316;2023-12-20T02:48:17;94740.56;;;2.30;100.00
9774;BME280;4926;42.670;23.316;2023-12-20T02:50:48;94755.06;;;2.21;100.00
9774;BME280;4926;42.670;23.316;2023-12-20T02:53:15;94743.69;;;2.04;100.00
9774;BME280;4926;42.670;23.316;2023-12-20T02:55:44;94736.16;;;1.96;100.00
9774;BME280;4926;42.670;23.316;2023-12-20T02:58:12;94740.38;;;1.97;100.00
9774;BME280;4926;42.670;23.316;2023-12-20T03:00:42;94743.00;;;1.97;100.00
9774;BME280;4926;42.670;23.316;2023-12-20T03:03:12;94740.94;;;1.99;100.00
9774;BME280;4926;42.670;23.316;2023-12-20T03:05:44;94736.84;;;2.03;100.00
9774;BME280;4926;42.670;23.316;2023-12-20T03:08:11;94733.41;;;2.02;100.00
9774;BME280;4926;42.670;23.316;2023-12-20T03:10:38;94730.44;;;1.99;100.00
9774;BME280;4926;42.670;23.316;2023-12-20T03:13:05;94736.16;;;1.96;100.00
9774;BME280;4926;42.670;23.316;2023-12-20T03:15:38;94732.59;;;2.02;100.00
9774;BME280;4926;42.670;23.316;2023-12-20T03:18:08;94727.25;;;1.97;100.00
9774;BME280;4926;42.670;23.316;2023-12-20T03:20:35;94732.63;;;1.90;100.00
9774;BME280;4926;42.670;23.316;2023-12-20T03:23:03;94733.88;;;1.99;100.00
9774;BME280;4926;42.670;23.316;2023-12-20T03:25:32;94719.84;;;1.94;100.00
9774;BME280;4926;42.670;23.316;2023-12-20T03:27:59;94720.75;;;1.99;100.00
9774;BME280;4926;42.670;23.316;2023-12-20T03:30:29;94716.75;;;1.97;100.00
9774;BME280;4926;42.670;23.316;2023-12-20T03:32:57;94708.19;;;1.90;100.00
9774;BME280;4926;42.670;23.316;2023-12-20T03:35:26;94712.88;;;1.88;100.00
9774;BME280;4926;42.670;23.316;2023-12-20T03:37:53;94724.28;;;1.59;100.00
9774;BME280;4926;42.670;23.316;2023-12-20T03:40:20;94717.88;;;1.55;100.00
9774;BME280;4926;42.670;23.316;2023-12-20T03:42:47;94719.47;;;1.56;100.00
9774;BME280;4926;42.670;23.316;2023-12-20T03:45:17;94722.56;;;1.41;100.00
9774;BME280;4926;42.670;23.316;2023-12-20T03:47:44;94720.81;;;1.24;100.00
9774;BME280;4926;42.670;23.316;2023-12-20T03:50:12;94711.88;;;1.01;100.00
9774;BME280;4926;42.670;23.316;2023-12-20T03:52:39;94707.75;;;0.94;100.00
9774;BME280;4926;42.670;23.316;2023-12-20T03:55:06;94713.41;;;0.79;100.00
9774;BME280;4926;42.670;23.316;2023-12-20T03:57:35;94711.97;;;0.65;100.00
9774;BME280;4926;42.670;23.316;2023-12-20T04:00:03;94703.66;;;0.68;100.00
9774;BME280;4926;42.670;23.316;2023-12-20T04:02:31;94711.09;;;0.71;100.00
9774;BME280;4926;42.670;23.316;2023-12-20T04:04:57;94699.47;;;0.67;100.00
9774;BME280;4926;42.670;23.316;2023-12-20T04:07:26;94700.19;;;0.56;100.00
9774;BME280;4926;42.670;23.316;2023-12-20T04:09:53;94699.97;;;0.58;100.00
9774;BME280;4926;42.670;23.316;2023-12-20T04:12:22;94690.75;;;0.85;100.00
9774;BME280;4926;42.670;23.316;2023-12-20T04:14:49;94691.28;;;1.28;100.00
9774;BME280;4926;42.670;23.316;2023-12-20T04:17:16;94680.63;;;1.64;100.00
9774;BME280;4926;42.670;23.316;2023-12-20T04:19:43;94680.69;;;1.11;100.00
9774;BME280;4926;42.670;23.316;2023-12-20T04:22:12;94683.56;;;0.80;100.00
9774;BME280;4926;42.670;23.316;2023-12-20T04:24:40;94685.78;;;0.65;100.00
9774;BME280;4926;42.670;23.316;2023-12-20T04:27:09;94684.91;;;0.42;100.00
9774;BME280;4926;42.670;23.316;2023-12-20T04:29:36;94666.31;;;0.14;100.00
9774;BME280;4926;42.670;23.316;2023-12-20T04:32:03;94679.53;;;0.19;100.00
9774;BME280;4926;42.670;23.316;2023-12-20T04:34:36;94671.91;;;0.17;100.00
9774;BME280;4926;42.670;23.316;2023-12-20T04:37:03;94670.03;;;0.24;100.00
9774;BME280;4926;42.670;23.316;2023-12-20T04:39:30;94667.88;;;0.51;100.00
9774;BME280;4926;42.670;23.316;2023-12-20T04:42:07;94664.00;;;0.65;100.00
9774;BME280;4926;42.670;23.316;2023-12-20T04:44:37;94670.66;;;0.67;100.00
9774;BME280;4926;42.670;23.316;2023-12-20T04:47:04;94661.00;;;0.79;100.00
9774;BME280;4926;42.670;23.316;2023-12-20T04:49:31;94663.63;;;0.79;100.00
9774;BME280;4926;42.670;23.316;2023-12-20T04:51:58;94653.72;;;0.81;100.00
9774;BME280;4926;42.670;23.316;2023-12-20T04:54:26;94656.56;;;0.91;100.00
9774;BME280;4926;42.670;23.316;2023-12-20T04:56:53;94655.91;;;0.96;100.00
9774;BME280;4926;42.670;23.316;2023-12-20T04:59:21;94650.22;;;0.99;100.00
9774;BME280;4926;42.670;23.316;2023-12-20T05:01:48;94656.28;;;0.99;100.00
9774;BME280;4926;42.670;23.316;2023-12-20T05:04:15;94655.56;;;0.92;100.00
9774;BME280;4926;42.670;23.316;2023-12-20T05:06:42;94659.91;;;0.98;100.00
9774;BME280;4926;42.670;23.316;2023-12-20T05:09:09;94647.38;;;1.00;100.00
9774;BME280;4926;42.670;23.316;2023-12-20T05:11:36;94643.75;;;1.01;100.00
9774;BME280;4926;42.670;23.316;2023-12-20T05:14:03;94654.13;;;1.08;100.00
9774;BME280;4926;42.670;23.316;2023-12-20T05:16:32;94650.13;;;1.05;100.00
9774;BME280;4926;42.670;23.316;2023-12-20T05:18:59;94643.28;;;1.04;100.00
9774;BME280;4926;42.670;23.316;2023-12-20T05:21:31;94642.59;;;0.97;100.00
9774;BME280;4926;42.670;23.316;2023-12-20T05:23:59;94640.75;;;0.86;100.00
9774;BME280;4926;42.670;23.316;2023-12-20T05:26:26;94641.31;;;0.88;100.00
9774;BME280;4926;42.670;23.316;2023-12-20T05:28:55;94636.81;;;1.30;100.00
9774;BME280;4926;42.670;23.316;2023-12-20T05:31:22;94627.41;;;1.92;100.00
9774;BME280;4926;42.670;23.316;2023-12-20T05:33:50;94629.94;;;1.87;100.00
9774;BME280;4926;42.670;23.316;2023-12-20T05:36:19;94627.13;;;1.42;100.00
9774;BME280;4926;42.670;23.316;2023-12-20T05:38:46;94631.78;;;1.17;100.00
9774;BME280;4926;42.670;23.316;2023-12-20T05:41:16;94630.66;;;1.13;100.00
9774;BME280;4926;42.670;23.316;2023-12-20T05:43:45;94632.56;;;1.06;100.00
9774;BME280;4926;42.670;23.316;2023-12-20T05:46:12;94634.59;;;0.92;100.00
9774;BME280;4926;42.670;23.316;2023-12-20T05:48:39;94629.25;;;0.87;100.00
9774;BME280;4926;42.670;23.316;2023-12-20T05:51:07;94623.75;;;0.77;100.00
9774;BME280;4926;42.670;23.316;2023-12-20T05:53:37;94619.53;;;0.76;100.00
9774;BME280;4926;42.670;23.316;2023-12-20T05:56:07;94625.25;;;0.73;100.00
9774;BME280;4926;42.670;23.316;2023-12-20T05:58:35;94615.19;;;0.70;100.00
9774;BME280;4926;42.670;23.316;2023-12-20T06:01:03;94616.53;;;0.61;100.00
9774;BME280;4926;42.670;23.316;2023-12-20T06:03:32;94614.19;;;0.71;100.00
9774;BME280;4926;42.670;23.316;2023-12-20T06:05:59;94604.91;;;0.57;100.00
9774;BME280;4926;42.670;23.316;2023-12-20T06:08:33;94612.00;;;0.39;100.00
9774;BME280;4926;42.670;23.316;2023-12-20T06:11:00;94616.19;;;0.28;100.00
9774;BME280;4926;42.670;23.316;2023-12-20T06:13:27;94600.31;;;0.41;100.00
9774;BME280;4926;42.670;23.316;2023-12-20T06:15:54;94616.91;;;0.35;100.00
9774;BME280;4926;42.670;23.316;2023-12-20T06:18:22;94618.75;;;0.46;100.00
9774;BME280;4926;42.670;23.316;2023-12-20T06:20:50;94614.56;;;0.45;100.00
9774;BME280;4926;42.670;23.316;2023-12-20T06:23:17;94631.28;;;0.44;100.00
9774;BME280;4926;42.670;23.316;2023-12-20T06:25:47;94628.53;;;0.39;100.00
9774;BME280;4926;42.670;23.316;2023-12-20T06:28:14;94621.72;;;0.38;100.00
9774;BME280;4926;42.670;23.316;2023-12-20T06:30:41;94622.72;;;0.37;100.00
9774;BME280;4926;42.670;23.316;2023-12-20T06:33:08;94620.09;;;0.37;100.00
9774;BME280;4926;42.670;23.316;2023-12-20T06:35:39;94619.09;;;0.38;100.00
9774;BME280;4926;42.670;23.316;2023-12-20T06:38:06;94616.34;;;0.33;100.00
9774;BME280;4926;42.670;23.316;2023-12-20T06:40:34;94619.84;;;0.27;100.00
9774;BME280;4926;42.670;23.316;2023-12-20T06:43:04;94606.03;;;0.20;100.00
9774;BME280;4926;42.670;23.316;2023-12-20T06:45:32;94612.84;;;0.21;100.00
9774;BME280;4926;42.670;23.316;2023-12-20T06:47:59;94611.41;;;0.25;100.00
9774;BME280;4926;42.670;23.316;2023-12-20T06:50:29;94595.69;;;0.25;100.00
9774;BME280;4926;42.670;23.316;2023-12-20T06:52:56;94602.00;;;0.36;100.00
9774;BME280;4926;42.670;23.316;2023-12-20T06:55:22;94602.31;;;0.28;100.00
9774;BME280;4926;42.670;23.316;2023-12-20T06:57:49;94585.94;;;0.32;100.00
9774;BME280;4926;42.670;23.316;2023-12-20T07:00:22;94594.63;;;0.44;100.00
9774;BME280;4926;42.670;23.316;2023-12-20T07:02:48;94583.38;;;0.55;100.00
9774;BME280;4926;42.670;23.316;2023-12-20T07:05:16;94583.97;;;0.57;100.00
9774;BME280;4926;42.670;23.316;2023-12-20T07:07:45;94581.00;;;0.54;100.00
9774;BME280;4926;42.670;23.316;2023-12-20T07:10:15;94592.53;;;0.64;100.00
9774;BME280;4926;42.670;23.316;2023-12-20T07:12:47;94583.19;;;0.27;100.00
9774;BME280;4926;42.670;23.316;2023-12-20T07:15:15;94594.53;;;0.21;100.00
9774;BME280;4926;42.670;23.316;2023-12-20T07:17:46;94576.22;;;0.21;100.00
9774;BME280;4926;42.670;23.316;2023-12-20T07:20:12;94576.72;;;0.30;100.00
9774;BME280;4926;42.670;23.316;2023-12-20T07:22:39;94569.59;;;0.37;100.00
9774;BME280;4926;42.670;23.316;2023-12-20T07:25:07;94572.47;;;0.58;100.00
9774;BME280;4926;42.670;23.316;2023-12-20T07:27:34;94573.38;;;0.64;100.00
9774;BME280;4926;42.670;23.316;2023-12-20T07:30:01;94573.06;;;0.83;100.00
9774;BME280;4926;42.670;23.316;2023-12-20T07:32:28;94563.72;;;0.76;100.00
9774;BME280;4926;42.670;23.316;2023-12-20T07:34:56;94563.75;;;0.87;100.00
9774;BME280;4926;42.670;23.316;2023-12-20T07:37:23;94561.69;;;1.01;100.00
9774;BME280;4926;42.670;23.316;2023-12-20T07:39:50;94562.72;;;1.23;100.00
9774;BME280;4926;42.670;23.316;2023-12-20T07:42:17;94551.41;;;1.23;100.00
9774;BME280;4926;42.670;23.316;2023-12-20T07:44:44;94572.75;;;1.38;100.00
9774;BME280;4926;42.670;23.316;2023-12-20T07:47:11;94565.88;;;1.37;100.00
9774;BME280;4926;42.670;23.316;2023-12-20T07:49:41;94569.19;;;1.44;100.00
9774;BME280;4926;42.670;23.316;2023-12-20T07:52:09;94568.75;;;1.47;100.00
9774;BME280;4926;42.670;23.316;2023-12-20T07:54:44;94552.78;;;1.37;100.00
9774;BME280;4926;42.670;23.316;2023-12-20T07:57:11;94557.00;;;1.26;100.00
9774;BME280;4926;42.670;23.316;2023-12-20T07:59:38;94561.56;;;1.31;100.00
9774;BME280;4926;42.670;23.316;2023-12-20T08:02:05;94562.34;;;1.43;100.00
9774;BME280;4926;42.670;23.316;2023-12-20T08:04:32;94545.72;;;1.49;100.00
9774;BME280;4926;42.670;23.316;2023-12-20T08:06:59;94565.41;;;1.51;100.00
9774;BME280;4926;42.670;23.316;2023-12-20T08:09:30;94559.69;;;1.66;100.00
9774;BME280;4926;42.670;23.316;2023-12-20T08:11:57;94553.59;;;1.77;100.00
9774;BME280;4926;42.670;23.316;2023-12-20T08:14:26;94540.63;;;1.82;100.00
9774;BME280;4926;42.670;23.316;2023-12-20T08:16:52;94546.53;;;1.89;100.00
9774;BME280;4926;42.670;23.316;2023-12-20T08:19:19;94544.97;;;2.04;100.00
9774;BME280;4926;42.670;23.316;2023-12-20T08:21:48;94536.25;;;2.15;100.00
9774;BME280;4926;42.670;23.316;2023-12-20T08:24:15;94543.53;;;2.42;100.00
9774;BME280;4926;42.670;23.316;2023-12-20T08:26:43;94540.69;;;2.43;100.00
9774;BME280;4926;42.670;23.316;2023-12-20T08:29:14;94531.97;;;2.71;100.00
9774;BME280;4926;42.670;23.316;2023-12-20T08:31:41;94540.00;;;2.81;100.00
9774;BME280;4926;42.670;23.316;2023-12-20T08:34:08;94531.56;;;2.95;100.00
9774;BME280;4926;42.670;23.316;2023-12-20T08:36:37;94525.94;;;3.08;100.00
9774;BME280;4926;42.670;23.316;2023-12-20T08:39:04;94522.00;;;3.06;100.00
9774;BME280;4926;42.670;23.316;2023-12-20T08:41:32;94515.47;;;2.75;100.00
9774;BME280;4926;42.670;23.316;2023-12-20T08:44:01;94519.13;;;2.74;100.00
9774;BME280;4926;42.670;23.316;2023-12-20T08:46:30;94508.00;;;2.67;100.00
9774;BME280;4926;42.670;23.316;2023-12-20T08:48:57;94506.22;;;2.56;100.00
9774;BME280;4926;42.670;23.316;2023-12-20T08:51:24;94506.06;;;2.46;100.00
9774;BME280;4926;42.670;23.316;2023-12-20T08:53:51;94505.09;;;2.52;100.00
9774;BME280;4926;42.670;23.316;2023-12-20T08:56:18;94506.88;;;2.63;100.00
9774;BME280;4926;42.670;23.316;2023-12-20T08:58:45;94500.03;;;2.62;100.00
9774;BME280;4926;42.670;23.316;2023-12-20T09:01:14;94497.00;;;2.70;100.00
9774;BME280;4926;42.670;23.316;2023-12-20T09:03:41;94497.31;;;2.74;100.00
9774;BME280;4926;42.670;23.316;2023-12-20T09:06:08;94478.97;;;2.79;100.00
9774;BME280;4926;42.670;23.316;2023-12-20T09:08:35;94477.22;;;2.84;100.00
9774;BME280;4926;42.670;23.316;2023-12-20T09:11:02;94471.03;;;2.90;100.00
9774;BME280;4926;42.670;23.316;2023-12-20T09:13:29;94458.25;;;2.99;100.00
9774;BME280;4926;42.670;23.316;2023-12-20T09:15:57;94449.13;;;3.06;100.00
9774;BME280;4926;42.670;23.316;2023-12-20T09:18:29;94432.22;;;3.19;100.00
9774;BME280;4926;42.670;23.316;2023-12-20T09:20:56;94436.31;;;3.31;100.00
9774;BME280;4926;42.670;23.316;2023-12-20T09:23:22;94428.50;;;3.36;100.00
9774;BME280;4926;42.670;23.316;2023-12-20T09:25:49;94413.31;;;3.43;100.00
9774;BME280;4926;42.670;23.316;2023-12-20T09:28:16;94410.13;;;3.41;100.00
9774;BME280;4926;42.670;23.316;2023-12-20T09:30:44;94402.25;;;3.41;100.00
9774;BME280;4926;42.670;23.316;2023-12-20T09:33:13;94407.81;;;3.45;100.00
9774;BME280;4926;42.670;23.316;2023-12-20T09:35:43;94396.31;;;3.29;100.00
9774;BME280;4926;42.670;23.316;2023-12-20T09:38:10;94408.84;;;3.22;100.00
9774;BME280;4926;42.670;23.316;2023-12-20T09:40:39;94395.34;;;3.35;100.00
9774;BME280;4926;42.670;23.316;2023-12-20T09:43:13;94387.25;;;3.20;100.00
9774;BME280;4926;42.670;23.316;2023-12-20T09:45:46;94382.63;;;3.27;100.00
9774;BME280;4926;42.670;23.316;2023-12-20T09:48:13;94370.25;;;3.28;100.00
9774;BME280;4926;42.670;23.316;2023-12-20T09:50:43;94351.06;;;3.27;100.00
9774;BME280;4926;42.670;23.316;2023-12-20T09:53:13;94370.31;;;3.55;100.00
9774;BME280;4926;42.670;23.316;2023-12-20T09:55:41;94366.66;;;3.61;100.00
9774;BME280;4926;42.670;23.316;2023-12-20T09:58:08;94360.47;;;3.72;100.00
9774;BME280;4926;42.670;23.316;2023-12-20T10:00:38;94365.47;;;3.73;100.00
9774;BME280;4926;42.670;23.316;2023-12-20T10:03:06;94367.53;;;3.98;100.00
9774;BME280;4926;42.670;23.316;2023-12-20T10:05:33;94371.63;;;4.15;100.00
9774;BME280;4926;42.670;23.316;2023-12-20T10:08:02;94353.13;;;4.37;100.00
9774;BME280;4926;42.670;23.316;2023-12-20T10:10:29;94349.44;;;4.43;100.00
9774;BME280;4926;42.670;23.316;2023-12-20T10:13:06;94346.81;;;4.43;100.00
9774;BME280;4926;42.670;23.316;2023-12-20T10:15:34;94338.38;;;4.41;100.00
9774;BME280;4926;42.670;23.316;2023-12-20T10:18:04;94330.03;;;4.54;100.00
9774;BME280;4926;42.670;23.316;2023-12-20T10:20:34;94327.41;;;4.59;100.00
9774;BME280;4926;42.670;23.316;2023-12-20T10:23:02;94319.00;;;4.67;100.00
9774;BME280;4926;42.670;23.316;2023-12-20T10:25:29;94321.00;;;4.45;100.00
9774;BME280;4926;42.670;23.316;2023-12-20T10:28:10;94317.06;;;4.42;100.00
9774;BME280;4926;42.670;23.316;2023-12-20T10:30:40;94303.06;;;4.37;100.00
9774;BME280;4926;42.670;23.316;2023-12-20T10:33:09;94305.44;;;4.38;100.00
9774;BME280;4926;42.670;23.316;2023-12-20T10:35:37;94299.94;;;4.45;100.00
9774;BME280;4926;42.670;23.316;2023-12-20T10:38:07;94301.25;;;4.42;100.00
9774;BME280;4926;42.670;23.316;2023-12-20T10:40:35;94293.63;;;4.46;100.00
9774;BME280;4926;42.670;23.316;2023-12-20T10:43:03;94291.00;;;4.46;100.00
9774;BME280;4926;42.670;23.316;2023-12-20T10:45:30;94281.47;;;4.45;100.00
9774;BME280;4926;42.670;23.316;2023-12-20T10:47:58;94278.03;;;4.44;100.00
9774;BME280;4926;42.670;23.316;2023-12-20T10:50:26;94277.28;;;4.44;100.00
9774;BME280;4926;42.670;23.316;2023-12-20T10:52:54;94274.09;;;4.42;100.00
9774;BME280;4926;42.670;23.316;2023-12-20T10:55:23;94277.44;;;4.32;100.00
9774;BME280;4926;42.670;23.316;2023-12-20T10:57:54;94252.41;;;4.25;100.00
9774;BME280;4926;42.670;23.316;2023-12-20T11:00:22;94261.84;;;4.21;100.00
9774;BME280;4926;42.670;23.316;2023-12-20T11:02:50;94253.34;;;4.09;100.00
9774;BME280;4926;42.670;23.316;2023-12-20T11:05:27;94260.72;;;3.75;100.00
9774;BME280;4926;42.670;23.316;2023-12-20T11:08:02;94250.47;;;3.74;100.00
9774;BME280;4926;42.670;23.316;2023-12-20T11:10:38;94253.03;;;3.64;100.00
9774;BME280;4926;42.670;23.316;2023-12-20T11:13:12;94249.41;;;3.75;100.00
9774;BME280;4926;42.670;23.316;2023-12-20T11:15:48;94241.38;;;3.55;100.00
9774;BME280;4926;42.670;23.316;2023-12-20T11:18:15;94233.72;;;3.53;100.00
9774;BME280;4926;42.670;23.316;2023-12-20T11:20:42;94230.41;;;3.68;100.00
9774;BME280;4926;42.670;23.316;2023-12-20T11:23:10;94224.06;;;3.64;100.00
9774;BME280;4926;42.670;23.316;2023-12-20T11:25:49;94225.09;;;3.63;100.00
9774;BME280;4926;42.670;23.316;2023-12-20T11:28:21;94204.50;;;3.50;100.00
9774;BME280;4926;42.670;23.316;2023-12-20T11:30:50;94217.13;;;3.53;100.00
9774;BME280;4926;42.670;23.316;2023-12-20T11:33:21;94191.81;;;3.47;100.00
9774;BME280;4926;42.670;23.316;2023-12-20T11:35:48;94197.09;;;3.47;100.00
9774;BME280;4926;42.670;23.316;2023-12-20T11:38:15;94168.78;;;3.59;100.00
9774;BME280;4926;42.670;23.316;2023-12-20T11:40:42;94170.47;;;3.80;100.00
9774;BME280;4926;42.670;23.316;2023-12-20T11:43:11;94178.91;;;3.82;100.00
9774;BME280;4926;42.670;23.316;2023-12-20T11:45:49;94170.03;;;3.93;100.00
9774;BME280;4926;42.670;23.316;2023-12-20T11:48:17;94176.03;;;3.83;100.00
9774;BME280;4926;42.670;23.316;2023-12-20T11:50:45;94159.53;;;3.98;100.00
9774;BME280;4926;42.670;23.316;2023-12-20T11:53:11;94151.69;;;4.13;100.00
9774;BME280;4926;42.670;23.316;2023-12-20T11:55:38;94157.00;;;4.18;100.00
9774;BME280;4926;42.670;23.316;2023-12-20T11:58:05;94140.19;;;4.34;100.00
9774;BME280;4926;42.670;23.316;2023-12-20T12:00:36;94136.00;;;4.33;100.00
9774;BME280;4926;42.670;23.316;2023-12-20T12:03:03;94131.00;;;4.41;100.00
9774;BME280;4926;42.670;23.316;2023-12-20T12:05:30;94127.63;;;4.61;100.00
9774;BME280;4926;42.670;23.316;2023-12-20T12:07:58;94120.81;;;4.65;100.00
9774;BME280;4926;42.670;23.316;2023-12-20T12:10:25;94124.47;;;4.64;100.00
9774;BME280;4926;42.670;23.316;2023-12-20T12:12:52;94118.66;;;4.52;100.00
9774;BME280;4926;42.670;23.316;2023-12-20T12:15:21;94111.56;;;4.63;100.00
9774;BME280;4926;42.670;23.316;2023-12-20T12:17:54;94106.03;;;4.74;100.00
9774;BME280;4926;42.670;23.316;2023-12-20T12:20:24;94106.34;;;4.93;100.00
9774;BME280;4926;42.670;23.316;2023-12-20T12:22:58;94089.22;;;5.00;100.00
9774;BME280;4926;42.670;23.316;2023-12-20T12:25:29;94091.03;;;5.15;100.00
9774;BME280;4926;42.670;23.316;2023-12-20T12:27:56;94094.47;;;5.30;100.00
9774;BME280;4926;42.670;23.316;2023-12-20T12:30:23;94093.44;;;5.31;100.00
9774;BME280;4926;42.670;23.316;2023-12-20T12:32:58;94087.63;;;5.24;100.00
9774;BME280;4926;42.670;23.316;2023-12-20T12:35:26;94099.22;;;5.33;100.00
9774;BME280;4926;42.670;23.316;2023-12-20T12:37:53;94097.13;;;5.20;100.00
9774;BME280;4926;42.670;23.316;2023-12-20T12:40:20;94098.69;;;5.01;100.00
9774;BME280;4926;42.670;23.316;2023-12-20T12:42:47;94090.75;;;4.76;100.00
9774;BME280;4926;42.670;23.316;2023-12-20T12:45:15;94089.72;;;4.82;100.00
9774;BME280;4926;42.670;23.316;2023-12-20T12:47:45;94074.66;;;4.73;100.00
9774;BME280;4926;42.670;23.316;2023-12-20T12:50:13;94087.03;;;4.67;100.00
9774;BME280;4926;42.670;23.316;2023-12-20T12:52:40;94090.75;;;4.66;100.00
9774;BME280;4926;42.670;23.316;2023-12-20T12:55:07;94084.13;;;4.53;100.00
9774;BME280;4926;42.670;23.316;2023-12-20T12:57:34;94092.53;;;4.40;100.00
9774;BME280;4926;42.670;23.316;2023-12-20T13:00:01;94079.59;;;4.29;100.00
9774;BME280;4926;42.670;23.316;2023-12-20T13:02:30;94070.94;;;4.43;100.00
9774;BME280;4926;42.670;23.316;2023-12-20T13:04:57;94078.03;;;4.43;100.00
9774;BME280;4926;42.670;23.316;2023-12-20T13:07:28;94074.91;;;4.46;100.00
9774;BME280;4926;42.670;23.316;2023-12-20T13:09:55;94076.22;;;4.53;100.00
9774;BME280;4926;42.670;23.316;2023-12-20T13:12:22;94077.03;;;4.59;100.00
9774;BME280;4926;42.670;23.316;2023-12-20T13:14:49;94080.19;;;4.51;100.00
9774;BME280;4926;42.670;23.316;2023-12-20T13:17:15;94074.88;;;4.36;100.00